Airfield :
LOGIN :

Register | Disclaimer

   EN    FR    IT 

 










Legend :    VFR   Marginal VFR   IFR   Intensive IFR   Very Intensive IFR
Visi :
Ceiling :
>= 8 km
>= 3000ft
5 to 8 km
1000 to 3000 ft
1500m to 5 km
500 to 1000 ft
800 to 1500m
200 to 500 ft
< 800m
< 200 ft
Symbols :   Thunderstorms  Fog  Heavy snow  Heavy precipitations  Wind > 20 kt
SIGMETs :     Misc.  Thunderstorms  Icing  Turbulence  Mountain Waves  Volcanic Ashes







- Airport Elevation : 195 ft
- Download approach charts


LFMY - Salon de Provence

CURRENT METAR :
  • 220230Z AUTO 36009KT 330V040 CAVOK 02/M04 Q1005

EXPIRED METARs :
  • 220200Z AUTO 34008KT 300V360 CAVOK 02/M04 Q1006
  • 220130Z AUTO 33009KT CAVOK 02/M04 Q1006
  • 220100Z AUTO 34011KT 300V360 CAVOK 03/M04 Q1006
  • 220030Z AUTO 35014KT CAVOK 03/M04 Q1006
  • 220000Z AUTO 34013KT CAVOK 03/M04 Q1006

TAF TAF LFMY
Valid from the 21 at 09:00 until the 22 at 09:00 UTC


210800Z 2109/2209 34015KT CAVOK
TEMPO 2109/2110 5000 -SHRASN SCT020TCU BKN025
BECMG 2110/2112 34020G30KT
BECMG 2205/2207 34015KT
No reported NOTAMs for that airfield.
3 SIGMETs reported for the Marseille FIR (LFMM) :
 
Embedded thunderstorms
LFMM SIGMET 9 VALID 220000/220400 LFPW
LFMM MARSEILLE FIR/UIR EMBD TS FCST WI N3930 E00430 - N4200 E00430 - N4200 E00415 - N4215 E00815 - N4130 E00945 - N4115 E00800 - N4000 E00800 - N3930 E00430 TOP FL230 STNR NC=
Severe turbulence
LFMM SIGMET 11 VALID 220200/220600 LFPW
LFMM MARSEILLE FIR/UIR SEV TURB FCST WI N4215 E00245 - N4215 E00230 - N4630 E00300 - N4630 E00515 - N4215 E00245 FL170/250 STNR NC=
Severe turbulence
LFMM SIGMET 10 VALID 220000/220400 LFPW
LFMM MARSEILLE FIR/UIR SEV TURB FCST WI N4200 E00400 - N4215 E00230 - N4300 E00230 - N4245 E00400 - N4200 E00400 SFC/FL050 STNR NC=



MET'MAP, your aeronautical weather chart ! - Copyright ORBIFLY December 2007 - Disclaimer

ORBIFLY MET'MAP TEAM :

Programming & Development : Alexandra Zaïnal
Concept & Development : Baudouin d'Aumeries
Co-Development & Prog : Marc-Olivier Méhu
Technical & hardware support : Manuel Goepfert

Contact : metmap@orbifly.com




SOURCES & CREDITS :

   NOAA